createdAt,value
2023-03-26T00:02:50.464Z,143.57
2023-03-26T00:06:50.493Z,145.97
2023-03-26T00:10:50.445Z,144.88
2023-03-26T00:14:50.380Z,145.12
2023-03-26T00:18:50.397Z,140.28
2023-03-26T00:22:50.395Z,147.71
2023-03-26T00:26:50.325Z,143.98
2023-03-26T00:30:51.334Z,145.95
2023-03-26T00:34:50.209Z,146.59
2023-03-26T00:38:50.287Z,145.65
2023-03-26T00:42:50.156Z,143.18
2023-03-26T00:46:50.176Z,146.54
2023-03-26T00:50:50.100Z,142.50
2023-03-26T00:54:50.042Z,144.70
2023-03-26T00:58:56.918Z,145.57
2023-03-26T01:02:50.482Z,147.90
2023-03-26T01:06:50.016Z,149.24
2023-03-26T01:10:49.934Z,144.22
2023-03-26T01:14:51.088Z,146.63
2023-03-26T01:18:49.911Z,145.64
2023-03-26T01:22:49.815Z,146.84
2023-03-26T01:26:49.747Z,143.88
2023-03-26T01:30:49.760Z,143.31
2023-03-26T01:34:49.688Z,147.80
2023-03-26T01:38:49.629Z,147.61
2023-03-26T01:42:49.653Z,144.27
2023-03-26T01:46:49.681Z,147.97
2023-03-26T01:50:49.607Z,147.36
2023-03-26T01:54:49.594Z,144.22
2023-03-26T01:58:49.554Z,143.18
2023-03-26T02:02:49.619Z,148.18
2023-03-26T02:06:49.608Z,145.85
2023-03-26T02:10:49.522Z,146.10
2023-03-26T02:14:49.570Z,144.70
2023-03-26T02:18:49.590Z,145.84
2023-03-26T02:22:49.551Z,146.44
2023-03-26T02:26:49.564Z,146.61
2023-03-26T02:30:49.559Z,144.39
2023-03-26T02:34:49.598Z,143.79
2023-03-26T02:38:49.605Z,146.93
2023-03-26T02:42:49.624Z,147.56
2023-03-26T02:46:49.703Z,146.73
2023-03-26T02:50:49.692Z,144.35
2023-03-26T02:54:49.727Z,146.15
2023-03-26T02:58:49.792Z,148.46
2023-03-26T03:02:49.949Z,146.63
2023-03-26T03:06:49.900Z,144.70
2023-03-26T03:10:49.937Z,145.59
2023-03-26T03:14:49.944Z,148.85
2023-03-26T03:18:50.046Z,145.69
2023-03-26T03:22:50.113Z,146.95
2023-03-26T03:26:50.169Z,146.42
2023-03-26T03:30:50.242Z,148.48
2023-03-26T03:34:50.308Z,149.26
2023-03-26T03:38:50.326Z,147.39
2023-03-26T03:42:50.420Z,144.99
2023-03-26T03:46:50.436Z,148.78
2023-03-26T03:50:50.631Z,148.22
2023-03-26T03:54:50.641Z,148.20
2023-03-26T03:58:50.697Z,148.41
2023-03-26T04:02:50.875Z,151.65
2023-03-26T04:06:50.891Z,150.97
2023-03-26T04:10:50.977Z,147.62
2023-03-26T04:14:51.109Z,148.74
2023-03-26T04:18:51.149Z,151.20
2023-03-26T04:22:51.277Z,150.76
2023-03-26T04:26:51.426Z,149.66
2023-03-26T04:30:51.501Z,150.33
2023-03-26T04:34:51.630Z,151.16
2023-03-26T04:38:51.754Z,146.63
2023-03-26T04:42:51.889Z,148.68
2023-03-26T04:46:52.015Z,148.95
2023-03-26T04:50:52.138Z,148.21
2023-03-26T04:54:52.170Z,148.70
2023-03-26T04:58:52.300Z,149.21
2023-03-26T05:02:52.539Z,148.34
2023-03-26T05:06:52.687Z,149.43
2023-03-26T05:10:52.905Z,149.50
2023-03-26T05:14:52.855Z,150.90
2023-03-26T05:18:53.047Z,149.88
2023-03-26T05:22:53.167Z,150.39
2023-03-26T05:26:53.314Z,150.59
2023-03-26T05:30:53.839Z,150.31
2023-03-26T05:34:53.675Z,150.97
2023-03-26T05:38:53.754Z,151.15
2023-03-26T05:42:53.886Z,152.84
2023-03-26T05:46:54.035Z,150.85
2023-03-26T05:50:54.350Z,151.44
2023-03-26T05:54:54.308Z,150.73
2023-03-26T05:58:54.469Z,149.24
2023-03-26T06:02:56.655Z,150.68
2023-03-26T06:06:54.573Z,149.89
2023-03-26T06:10:54.792Z,151.23
2023-03-26T06:14:54.515Z,149.04
2023-03-26T06:18:56.446Z,150.75
2023-03-26T06:22:54.455Z,151.36
2023-03-26T06:26:54.423Z,151.11
2023-03-26T06:30:54.613Z,151.27
2023-03-26T06:34:54.300Z,149.68
2023-03-26T06:38:54.314Z,150.72
2023-03-26T06:43:09.848Z,154.39
2023-03-26T06:46:55.289Z,155.33
2023-03-26T06:50:54.356Z,159.68
2023-03-26T06:54:54.191Z,155.30
2023-03-26T06:58:54.105Z,155.31
2023-03-26T07:02:54.145Z,152.35
2023-03-26T07:06:54.018Z,155.29
2023-03-26T07:10:54.222Z,155.21
2023-03-26T07:14:53.947Z,158.02
2023-03-26T07:18:53.973Z,157.12
2023-03-26T07:22:54.129Z,161.30
2023-03-26T07:26:54.711Z,160.26
2023-03-26T07:30:54.594Z,161.78
2023-03-26T07:34:54.502Z,163.46
2023-03-26T07:38:54.528Z,160.54
2023-03-26T07:42:54.596Z,161.04
2023-03-26T07:46:54.678Z,156.94
2023-03-26T07:50:55.563Z,157.17
2023-03-26T07:54:54.843Z,155.35
2023-03-26T07:58:55.017Z,161.21
2023-03-26T08:02:54.919Z,158.44
2023-03-26T08:06:54.825Z,158.13
2023-03-26T08:10:55.045Z,161.69
2023-03-26T08:14:54.857Z,162.94
2023-03-26T08:18:54.891Z,157.49
2023-03-26T08:22:54.809Z,157.57
2023-03-26T08:26:55.148Z,158.36
2023-03-26T08:30:54.994Z,153.26
2023-03-26T08:34:54.695Z,159.77
2023-03-26T08:38:54.683Z,156.86
2023-03-26T08:42:54.656Z,156.34
2023-03-26T08:46:54.662Z,158.25
2023-03-26T08:50:54.736Z,156.77
2023-03-26T08:54:56.789Z,157.85
2023-03-26T08:58:54.513Z,157.45
2023-03-26T09:02:54.719Z,158.24
2023-03-26T09:06:54.455Z,159.80
2023-03-26T09:10:54.580Z,158.07
2023-03-26T09:14:54.409Z,156.89
2023-03-26T09:18:54.320Z,155.92
2023-03-26T09:22:54.300Z,153.28
2023-03-26T09:26:54.286Z,154.03
2023-03-26T09:30:54.351Z,150.72
2023-03-26T09:34:54.218Z,151.97
2023-03-26T09:38:54.311Z,151.73
2023-03-26T09:42:54.496Z,154.54
2023-03-26T09:46:54.720Z,152.55
2023-03-26T09:50:54.867Z,152.44
2023-03-26T09:54:54.733Z,153.77
2023-03-26T09:58:54.605Z,157.24
2023-03-26T10:02:54.625Z,154.91
2023-03-26T10:06:54.557Z,155.13
2023-03-26T10:10:54.670Z,158.23
2023-03-26T10:14:54.505Z,155.88
2023-03-26T10:18:54.416Z,155.64
2023-03-26T10:22:54.399Z,155.42
2023-03-26T10:27:08.355Z,154.77
2023-03-26T10:30:55.429Z,155.71
2023-03-26T10:34:54.333Z,154.39
2023-03-26T10:38:54.318Z,154.45
2023-03-26T10:42:54.526Z,152.99
2023-03-26T10:46:54.516Z,151.68
2023-03-26T10:50:54.688Z,151.30
2023-03-26T10:54:54.416Z,150.97
2023-03-26T10:58:54.413Z,149.34
2023-03-26T11:02:54.411Z,151.95
2023-03-26T11:06:54.724Z,152.16
2023-03-26T11:10:54.418Z,151.55
2023-03-26T11:14:54.242Z,152.70
2023-03-26T11:18:54.232Z,154.27
2023-03-26T11:22:54.355Z,154.53
2023-03-26T11:26:54.475Z,153.49
2023-03-26T11:30:55.044Z,152.46
2023-03-26T11:34:54.763Z,153.78
2023-03-26T11:38:54.891Z,153.52
2023-03-26T11:42:54.957Z,154.32
2023-03-26T11:46:55.082Z,153.21
2023-03-26T11:50:55.375Z,155.91
2023-03-26T11:54:55.175Z,155.60
2023-03-26T11:58:55.211Z,155.86
2023-03-26T12:02:55.318Z,153.87
2023-03-26T12:06:55.365Z,154.15
2023-03-26T12:10:55.612Z,152.11
2023-03-26T12:14:55.549Z,150.59
2023-03-26T12:18:55.706Z,152.67
2023-03-26T12:22:55.894Z,152.79
2023-03-26T12:26:55.966Z,150.64
2023-03-26T12:30:56.307Z,149.79
2023-03-26T12:34:56.318Z,148.02
2023-03-26T12:40:06.209Z,148.18
2023-03-26T12:44:52.932Z,148.87
2023-03-26T12:47:58.375Z,149.30
2023-03-26T12:50:57.870Z,148.95
2023-03-26T12:54:56.477Z,148.89
2023-03-26T12:58:56.428Z,151.95
2023-03-26T13:02:56.924Z,145.79
2023-03-26T13:06:59.737Z,145.21
2023-03-26T13:10:57.710Z,147.73
2023-03-26T13:14:56.443Z,143.52
2023-03-26T13:18:56.705Z,143.55
2023-03-26T13:22:56.595Z,146.70
2023-03-26T13:26:56.623Z,146.35
2023-03-26T13:30:56.803Z,147.19
2023-03-26T13:34:56.571Z,143.05
2023-03-26T13:38:58.647Z,143.68
2023-03-26T13:42:56.920Z,143.34
2023-03-26T13:46:56.457Z,146.43
2023-03-26T13:50:56.619Z,145.92
2023-03-26T13:54:56.340Z,144.74
2023-03-26T13:58:56.343Z,147.99
2023-03-26T14:02:56.339Z,146.88
2023-03-26T14:06:56.305Z,146.39
2023-03-26T14:10:56.364Z,148.29
2023-03-26T14:14:56.208Z,143.68
2023-03-26T14:18:56.220Z,147.37
2023-03-26T14:22:56.171Z,146.34
2023-03-26T14:26:56.118Z,147.90
2023-03-26T14:30:56.203Z,144.65
2023-03-26T14:34:55.987Z,145.89
2023-03-26T14:38:56.378Z,144.92
2023-03-26T14:42:56.676Z,143.94
2023-03-26T14:46:56.033Z,145.64
2023-03-26T14:50:56.022Z,145.56
2023-03-26T14:54:55.812Z,144.64
2023-03-26T14:58:55.818Z,148.16
2023-03-26T15:02:55.782Z,146.06
2023-03-26T15:06:55.759Z,146.55
2023-03-26T15:10:55.815Z,146.17
2023-03-26T15:14:55.627Z,148.72
2023-03-26T15:18:55.694Z,148.59
2023-03-26T15:22:55.656Z,145.28
2023-03-26T15:26:55.738Z,147.62
2023-03-26T15:30:56.040Z,146.35
2023-03-26T15:34:55.984Z,148.27
2023-03-26T15:38:56.084Z,149.76
2023-03-26T15:42:56.197Z,148.79
2023-03-26T15:46:56.347Z,149.29
2023-03-26T15:50:56.663Z,146.61
2023-03-26T15:54:56.647Z,145.22
2023-03-26T15:58:56.845Z,150.64
2023-03-26T16:02:56.930Z,147.41
2023-03-26T16:06:57.084Z,148.78
2023-03-26T16:10:57.396Z,150.21
2023-03-26T16:14:57.385Z,150.00
2023-03-26T16:18:57.575Z,151.62
2023-03-26T16:22:57.701Z,148.84
2023-03-26T16:26:57.940Z,151.49
2023-03-26T16:30:58.360Z,147.67
2023-03-26T16:34:58.302Z,150.89
2023-03-26T16:38:58.514Z,149.62
2023-03-26T16:42:58.668Z,152.81
2023-03-26T16:46:58.920Z,149.98
2023-03-26T16:50:59.126Z,148.62
2023-03-26T16:54:59.079Z,151.00
2023-03-26T16:58:59.063Z,150.57
2023-03-26T17:02:59.162Z,148.21
2023-03-26T17:06:58.973Z,151.11
2023-03-26T17:10:58.939Z,153.74
2023-03-26T17:14:58.882Z,154.47
2023-03-26T17:18:58.841Z,152.20
2023-03-26T17:22:58.835Z,153.22
2023-03-26T17:26:58.801Z,151.79
2023-03-26T17:30:58.872Z,150.99
2023-03-26T17:34:58.969Z,154.74
2023-03-26T17:38:58.973Z,154.17
2023-03-26T17:42:58.971Z,154.00
2023-03-26T17:46:58.939Z,154.96
2023-03-26T17:50:58.976Z,156.15
2023-03-26T17:54:58.846Z,157.67
2023-03-26T17:58:58.773Z,154.16
2023-03-26T18:02:59.937Z,153.48
2023-03-26T18:06:58.728Z,152.74
2023-03-26T18:10:58.818Z,149.82
2023-03-26T18:14:58.931Z,152.47
2023-03-26T18:18:59.112Z,154.24
2023-03-26T18:22:59.268Z,155.51
2023-03-26T18:26:59.328Z,155.58
2023-03-26T18:30:59.306Z,151.16
2023-03-26T18:34:59.336Z,153.57
2023-03-26T18:38:59.359Z,153.73
2023-03-26T18:42:59.335Z,155.23
2023-03-26T18:46:59.325Z,154.64
2023-03-26T18:50:59.339Z,155.00
2023-03-26T18:55:00.258Z,155.79
2023-03-26T18:58:59.226Z,151.99
2023-03-26T19:02:59.344Z,155.07
2023-03-26T19:06:59.108Z,153.75
2023-03-26T19:10:59.080Z,153.33
2023-03-26T19:14:59.092Z,155.79
2023-03-26T19:18:59.079Z,152.17
2023-03-26T19:22:59.114Z,152.23
2023-03-26T19:26:59.088Z,152.18
2023-03-26T19:30:59.421Z,153.23
2023-03-26T19:34:59.113Z,153.87
2023-03-26T19:38:59.135Z,156.06
2023-03-26T19:42:59.114Z,154.72
2023-03-26T19:46:59.274Z,154.66
2023-03-26T19:50:59.155Z,154.74
2023-03-26T19:55:00.125Z,154.92
2023-03-26T19:58:59.244Z,156.15
2023-03-26T20:02:59.368Z,155.13
2023-03-26T20:06:59.347Z,155.40
2023-03-26T20:10:59.701Z,153.43
2023-03-26T20:14:59.455Z,156.18
2023-03-26T20:18:59.512Z,155.31
2023-03-26T20:22:59.586Z,156.24
2023-03-26T20:26:59.662Z,155.40
2023-03-26T20:30:59.951Z,154.79
2023-03-26T20:34:59.856Z,155.21
2023-03-26T20:38:59.899Z,154.07
2023-03-26T20:42:59.973Z,156.48
2023-03-26T20:47:00.090Z,154.34
2023-03-26T20:51:00.158Z,157.08
2023-03-26T20:55:00.248Z,156.55
2023-03-26T20:59:10.319Z,157.05
2023-03-26T21:03:01.335Z,154.55
2023-03-26T21:07:11.140Z,157.43
2023-03-26T21:11:01.247Z,157.73
2023-03-26T21:15:00.519Z,157.56
2023-03-26T21:19:00.170Z,155.18
2023-03-26T21:23:00.134Z,155.87
2023-03-26T21:27:00.123Z,155.99
2023-03-26T21:31:00.251Z,156.70
2023-03-26T21:35:00.351Z,156.27
2023-03-26T21:39:00.446Z,153.90
2023-03-26T21:43:01.600Z,158.47
2023-03-26T21:47:00.704Z,156.34
2023-03-26T21:51:00.829Z,157.04
2023-03-26T21:55:00.984Z,157.94
2023-03-26T21:59:01.109Z,156.61
2023-03-26T22:03:02.083Z,157.48
2023-03-26T22:07:01.315Z,155.73
2023-03-26T22:11:01.439Z,157.47
2023-03-26T22:15:01.617Z,158.12
2023-03-26T22:19:01.749Z,156.20
2023-03-26T22:23:01.968Z,155.88
2023-03-26T22:27:02.132Z,158.76
2023-03-26T22:31:02.264Z,156.84
2023-03-26T22:35:02.358Z,156.55
2023-03-26T22:39:02.563Z,155.01
2023-03-26T22:43:02.722Z,156.70
2023-03-26T22:47:02.964Z,155.15
2023-03-26T22:51:03.086Z,157.56
2023-03-26T22:55:03.291Z,153.69
2023-03-26T22:59:03.512Z,159.90
2023-03-26T23:03:03.704Z,159.69
2023-03-26T23:07:03.855Z,161.18
2023-03-26T23:11:04.043Z,158.11
2023-03-26T23:15:04.236Z,157.68
2023-03-26T23:19:04.462Z,159.50
2023-03-26T23:23:04.703Z,158.83
2023-03-26T23:27:04.862Z,155.63
2023-03-26T23:31:05.156Z,157.72
2023-03-26T23:35:05.295Z,158.85
2023-03-26T23:39:05.521Z,158.15
2023-03-26T23:43:05.715Z,157.20
2023-03-26T23:47:05.924Z,158.33
2023-03-26T23:51:06.099Z,157.94
2023-03-26T23:55:06.708Z,156.99
2023-03-26T23:59:06.519Z,158.05
